Time;durP1;ratioP1;P1;durP2;ratioP2;P2;SDS_P1;SDS_P2;PMS_P1;PMS_P2;Temp;Humidity;BMP_temperature;BMP_pressure;BME280_temperature;BME280_humidity;BME280_pressure;Samples;Min_cycle;Max_cycle;Signal;HPM_P1;HPM_P2
2022/02/03 00:00:53;;;;;;;22.85;3.67;;;;;;;3.44;90.59;101861.69;2073252;28;44865;-74
2022/02/03 00:04:08;;;;;;;20.88;3.70;;;;;;;3.45;91.16;101858.19;2079537;28;42341;-74
2022/02/03 00:05:19;;;;;;;18.58;3.47;;;;;;;3.47;91.86;101850.28;2080101;28;43049;-75
2022/02/03 00:06:32;;;;;;;24.08;4.20;;;;;;;3.50;91.92;101858.28;2079755;28;45927;-74
2022/02/03 00:07:53;;;;;;;23.30;3.58;;;;;;;3.49;91.75;101854.75;2079699;28;45627;-75
2022/02/03 00:10:35;;;;;;;23.48;4.05;;;;;;;3.51;92.71;101854.78;2071202;28;43100;-75
2022/02/03 00:16:09;;;;;;;16.17;2.95;;;;;;;3.51;93.27;101849.50;2068090;28;45580;-75
2022/02/03 00:22:01;;;;;;;29.85;4.25;;;;;;;3.52;93.71;101844.22;2076404;28;44670;-75
2022/02/03 00:24:13;;;;;;;28.73;4.38;;;;;;;3.54;95.07;101844.25;2078424;28;20038;-75
2022/02/03 00:25:31;;;;;;;28.58;4.57;;;;;;;3.52;95.52;101841.59;2070888;28;42879;-75
2022/02/03 00:26:35;;;;;;;25.10;4.32;;;;;;;3.53;95.19;101834.53;2074972;28;46784;-75
2022/02/03 00:27:55;;;;;;;27.58;4.38;;;;;;;3.54;95.64;101841.63;2080152;28;44370;-75
2022/02/03 00:29:02;;;;;;;29.15;4.90;;;;;;;3.55;95.63;101844.31;2079926;28;29762;-75
2022/02/03 00:30:11;;;;;;;28.67;4.68;;;;;;;3.55;95.67;101832.78;2071399;28;44656;-75
2022/02/03 00:31:37;;;;;;;26.50;5.00;;;;;;;3.55;96.22;101833.72;2072513;28;45232;-75
2022/02/03 00:34:01;;;;;;;25.95;4.75;;;;;;;3.59;96.38;101834.66;2075616;28;44770;-75
2022/02/03 00:36:25;;;;;;;28.33;5.55;;;;;;;3.58;96.39;101839.03;2073612;28;46140;-77
2022/02/03 00:37:45;;;;;;;26.40;5.25;;;;;;;3.59;96.51;101832.03;2070889;28;43757;-76
2022/02/03 00:48:32;;;;;;;34.65;6.30;;;;;;;3.66;96.90;101825.06;2070962;28;45298;-75
2022/02/03 00:49:48;;;;;;;34.15;6.25;;;;;;;3.68;96.59;101820.69;2076045;28;45221;-76
2022/02/03 00:50:53;;;;;;;35.47;6.45;;;;;;;3.68;96.64;101821.59;2080006;28;43121;-75
2022/02/03 00:52:01;;;;;;;34.47;6.72;;;;;;;3.69;97.19;101817.19;2079319;28;45733;-75
2022/02/03 00:53:06;;;;;;;26.90;6.57;;;;;;;3.71;97.19;101821.63;2070905;28;44946;-75
2022/02/03 00:54:14;;;;;;;38.38;7.25;;;;;;;3.72;97.55;101825.19;2062874;28;42729;-75
2022/02/03 00:55:16;;;;;;;33.55;6.70;;;;;;;3.71;97.12;101819.00;2071963;28;46264;-75
2022/02/03 00:56:24;;;;;;;27.80;7.28;;;;;;;3.72;97.39;101823.44;2079677;28;45083;-75
2022/02/03 00:57:45;;;;;;;36.13;7.20;;;;;;;3.75;97.83;101826.16;2070998;28;44070;-75
2022/02/03 00:58:57;;;;;;;35.60;7.40;;;;;;;3.76;97.12;101825.28;2074456;28;44295;-75
2022/02/03 01:00:11;;;;;;;33.30;7.57;;;;;;;3.77;97.87;101816.47;2079652;28;45042;-75
2022/02/03 01:01:18;;;;;;;33.78;6.97;;;;;;;3.78;97.37;101823.53;2079537;28;45224;-75
2022/02/03 01:02:22;;;;;;;37.17;8.27;;;;;;;3.78;97.86;101815.59;2080310;28;23020;-76
2022/02/03 01:03:30;;;;;;;42.40;8.25;;;;;;;3.80;96.94;101811.25;2080734;28;20097;-75
2022/02/03 01:04:41;;;;;;;24.70;5.88;;;;;;;3.83;97.94;101813.03;2080072;28;20058;-75
2022/02/03 01:05:46;;;;;;;38.78;8.95;;;;;;;3.82;97.61;101809.50;2079283;28;42759;-75
2022/02/03 01:06:52;;;;;;;42.05;9.63;;;;;;;3.85;98.31;101810.44;2079616;28;45097;-76
2022/02/03 01:08:00;;;;;;;36.13;9.48;;;;;;;3.86;97.84;101812.19;2080057;28;42737;-75
2022/02/03 01:09:06;;;;;;;35.70;8.52;;;;;;;3.87;98.23;101811.34;2070758;28;43091;-76
2022/02/03 01:10:18;;;;;;;37.03;9.70;;;;;;;3.87;98.14;101809.59;2064189;28;44974;-75
2022/02/03 01:11:27;;;;;;;36.10;9.27;;;;;;;3.88;98.34;101800.78;2073189;28;44386;-76
2022/02/03 01:14:09;;;;;;;42.30;10.40;;;;;;;3.89;98.00;101805.19;2079850;28;43268;-75
2022/02/03 01:15:25;;;;;;;34.72;10.48;;;;;;;3.91;98.52;101799.94;2079018;28;43148;-76
2022/02/03 01:17:49;;;;;;;37.35;12.00;;;;;;;3.94;98.51;101805.31;2071584;28;20826;-76
2022/02/03 01:21:34;;;;;;;38.30;12.40;;;;;;;3.97;98.65;101805.38;2065441;28;45345;-76
2022/02/03 01:36:47;;;;;;;36.75;15.00;;;;;;;4.07;98.18;101802.00;2066299;28;45066;-76
2022/02/03 01:43:36;;;;;;;40.92;15.73;;;;;;;4.15;98.99;101795.09;2068242;28;45536;-76
2022/02/03 01:45:54;;;;;;;33.25;15.07;;;;;;;4.17;98.91;101779.22;2079248;28;43148;-77
2022/02/03 01:47:06;;;;;;;31.48;14.18;;;;;;;4.17;99.02;101785.38;2070691;28;46249;-76
2022/02/03 01:52:31;;;;;;;29.73;15.63;;;;;;;4.22;99.13;101769.59;2079266;28;43129;-76
2022/02/03 01:53:35;;;;;;;34.38;16.45;;;;;;;4.24;98.53;101764.31;2079561;28;43829;-76
2022/02/03 01:54:37;;;;;;;32.90;15.45;;;;;;;4.24;98.81;101766.97;2081695;28;43514;-76
2022/02/03 01:55:46;;;;;;;29.77;15.25;;;;;;;4.26;98.53;101759.91;2073726;28;44317;-76
2022/02/03 01:57:00;;;;;;;40.28;17.13;;;;;;;4.26;99.01;101759.91;2065842;28;44353;-76
2022/02/03 01:58:13;;;;;;;40.00;16.55;;;;;;;4.28;98.49;101766.13;2075814;28;43754;-75
2022/02/03 01:59:24;;;;;;;29.30;15.55;;;;;;;4.27;98.59;101759.03;2073345;28;47292;-76
2022/02/03 02:00:34;;;;;;;39.83;17.50;;;;;;;4.29;99.03;101752.91;2076116;28;44368;-76
2022/02/03 02:01:38;;;;;;;35.90;16.58;;;;;;;4.30;98.52;101748.50;2082359;28;42986;-76
2022/02/03 02:03:10;;;;;;;30.20;17.10;;;;;;;4.30;98.72;101756.44;2081927;28;42493;-76
2022/02/03 02:04:45;;;;;;;33.03;15.50;;;;;;;4.30;98.88;101746.72;2073174;28;42979;-75
2022/02/03 02:06:31;;;;;;;34.38;16.85;;;;;;;4.31;98.98;101742.34;2071290;28;44218;-76
2022/02/03 02:08:26;;;;;;;34.97;17.95;;;;;;;4.32;98.39;101747.63;2082104;28;45700;-76
2022/02/03 02:10:00;;;;;;;34.13;16.10;;;;;;;4.35;99.07;101744.16;2070474;28;45028;-76
2022/02/03 02:11:31;;;;;;;32.35;18.00;;;;;;;4.36;98.43;101740.63;2073039;28;46320;-76
2022/02/03 02:13:10;;;;;;;37.65;17.52;;;;;;;4.36;99.20;101735.31;2080763;28;44358;-76
2022/02/03 02:37:01;;;;;;;47.50;22.48;;;;;;;4.52;99.37;101673.72;2081857;28;46372;-76
2022/02/03 02:42:32;;;;;;;49.92;21.33;;;;;;;4.57;99.08;101674.63;2042926;28;44992;-76
2022/02/03 02:43:36;;;;;;;58.88;23.13;;;;;;;4.59;99.24;101664.06;2081933;28;45443;-76
2022/02/03 02:44:57;;;;;;;53.75;23.80;;;;;;;4.62;99.78;101665.88;2072949;28;46704;-76
2022/02/03 02:46:22;;;;;;;54.50;22.85;;;;;;;4.63;98.96;101670.28;2077012;28;43030;-76
2022/02/03 02:47:50;;;;;;;54.20;24.63;;;;;;;4.63;99.34;101671.22;2081759;28;44407;-77
2022/02/03 02:49:33;;;;;;;66.90;25.00;;;;;;;4.64;99.92;101665.00;2081829;28;44493;-77
2022/02/03 02:50:56;;;;;;;58.47;24.70;;;;;;;4.66;99.62;101665.91;2073101;28;43997;-76
2022/02/03 02:52:10;;;;;;;67.78;25.60;;;;;;;4.67;99.54;101667.72;2079741;28;46029;-76
2022/02/03 02:53:59;;;;;;;68.20;26.90;;;;;;;4.68;99.58;101671.25;2072727;28;43940;-76
2022/02/03 02:55:44;;;;;;;72.10;27.48;;;;;;;4.69;99.42;101663.31;2079142;28;43015;-77
2022/02/03 02:57:12;;;;;;;68.82;26.20;;;;;;;4.70;99.80;101661.53;2081482;28;44687;-76
2022/02/03 03:02:10;;;;;;;87.68;28.83;;;;;;;4.74;99.03;101664.28;2072457;28;43150;-76
2022/02/03 03:03:27;;;;;;;83.63;28.33;;;;;;;4.76;99.39;101666.94;2079953;28;45039;-76
2022/02/03 03:31:28;;;;;;;122.50;36.53;;;;;;;5.05;99.63;101642.53;2062772;28;44652;-76
2022/02/03 03:32:54;;;;;;;101.72;33.10;;;;;;;5.07;99.32;101638.13;2066169;28;42921;-76
2022/02/03 03:34:10;;;;;;;114.95;34.92;;;;;;;5.08;99.78;101643.44;2071138;28;43364;-76
2022/02/03 03:36:17;;;;;;;119.00;36.70;;;;;;;5.13;99.13;101630.22;2056950;28;45183;-76
2022/02/03 03:37:43;;;;;;;127.53;37.22;;;;;;;5.13;100.00;101636.44;2071479;28;44630;-76
2022/02/03 03:38:48;;;;;;;119.45;35.67;;;;;;;5.15;99.55;101626.72;2071496;28;42167;-75
2022/02/03 03:39:58;;;;;;;120.75;37.85;;;;;;;5.18;100.00;101631.16;2073059;28;20042;-76
2022/02/03 03:41:02;;;;;;;127.60;37.15;;;;;;;5.19;99.92;101629.38;2066566;28;44252;-76
2022/02/03 03:42:06;;;;;;;134.07;37.30;;;;;;;5.20;100.00;101631.16;2070881;28;44942;-76
2022/02/03 03:43:12;;;;;;;122.05;35.78;;;;;;;5.21;99.71;101628.53;2071472;28;44252;-76
2022/02/03 03:44:18;;;;;;;107.82;34.22;;;;;;;5.23;99.42;101636.53;2071315;28;45549;-76
2022/02/03 03:45:21;;;;;;;122.28;38.38;;;;;;;5.25;99.99;101625.03;2071718;28;46295;-76
2022/02/03 03:46:35;;;;;;;122.82;37.00;;;;;;;5.26;99.28;101621.50;2072725;28;20966;-76
2022/02/03 03:47:41;;;;;;;120.00;36.72;;;;;;;5.28;99.44;101622.41;2071819;28;45306;-76
2022/02/03 03:49:23;;;;;;;108.45;35.83;;;;;;;5.30;99.19;101625.97;2072078;28;43418;-76
2022/02/03 03:50:28;;;;;;;105.22;34.25;;;;;;;5.31;99.85;101617.13;2071884;28;44980;-76
2022/02/03 03:51:46;;;;;;;123.97;36.05;;;;;;;5.32;100.00;101610.94;2062860;28;45665;-76
2022/02/03 03:53:02;;;;;;;112.28;35.17;;;;;;;5.34;100.00;101618.91;2065835;28;43361;-76
2022/02/03 03:54:09;;;;;;;123.28;35.90;;;;;;;5.34;100.00;101611.84;2071847;28;43861;-76
2022/02/03 03:55:22;;;;;;;105.53;34.72;;;;;;;5.39;99.86;101621.63;2071238;28;44442;-76
2022/02/03 03:56:36;;;;;;;101.32;33.28;;;;;;;5.40;99.77;101608.38;2071200;28;44473;-76
2022/02/03 04:29:01;;;;;;;106.88;34.10;;;;;;;5.49;99.50;101600.47;2071680;28;44483;-74
2022/02/03 04:29:43;;;;;;;144.75;34.50;;;;;;;5.92;100.00;101578.63;2070837;28;46512;-73
2022/02/03 04:36:51;;;;;;;154.50;36.23;;;;;;;6.00;99.86;101568.13;2071500;28;45228;-74
2022/02/03 04:40:36;;;;;;;149.15;33.72;;;;;;;6.04;99.94;101564.59;2071382;28;45147;-74
2022/02/03 04:42:12;;;;;;;179.27;37.42;;;;;;;6.07;99.87;101564.63;2079305;28;42811;-74
2022/02/03 04:43:54;;;;;;;195.50;37.15;;;;;;;6.09;99.82;101563.72;2070386;28;42936;-74
2022/02/03 04:54:28;;;;;;;210.70;38.42;;;;;;;6.18;100.00;101556.69;2079631;28;45991;-74
2022/02/03 04:55:36;;;;;;;187.15;38.33;;;;;;;6.22;99.90;101558.47;2077431;28;44151;-74
2022/02/03 04:59:32;;;;;;;198.02;37.80;;;;;;;6.23;100.00;101553.16;2079620;28;39168;-75
2022/02/03 05:01:04;;;;;;;190.63;37.17;;;;;;;6.25;100.00;101547.88;2059462;28;45364;-74
2022/02/03 05:04:31;;;;;;;201.60;38.10;;;;;;;6.27;100.00;101548.75;2079500;28;43758;-74
2022/02/03 05:05:56;;;;;;;165.48;37.08;;;;;;;6.30;100.00;101548.78;2070819;28;46399;-74
2022/02/03 05:09:34;;;;;;;184.45;37.55;;;;;;;6.34;100.00;101542.59;2079552;28;44183;-74
2022/02/03 05:17:33;;;;;;;170.27;37.38;;;;;;;6.47;100.00;101536.41;2062141;28;44428;-74
2022/02/03 05:24:46;;;;;;;161.15;35.83;;;;;;;6.56;100.00;101526.69;2079312;28;45396;-74
2022/02/03 05:34:06;;;;;;;151.50;36.92;;;;;;;6.69;100.00;101515.19;2074623;28;44056;-74
2022/02/03 05:35:27;;;;;;;153.18;33.35;;;;;;;6.70;100.00;101503.69;2079539;28;45206;-74
2022/02/03 05:42:03;;;;;;;159.45;36.33;;;;;;;6.71;100.00;101507.22;2071940;28;20120;-75
2022/02/03 05:43:39;;;;;;;137.00;34.28;;;;;;;6.81;100.00;101495.72;2070430;28;45726;-76
2022/02/03 05:45:41;;;;;;;149.02;37.80;;;;;;;6.82;100.00;101493.06;2079233;28;44124;-76
2022/02/03 06:02:37;;;;;;;114.45;32.95;;;;;;;6.91;100.00;101465.56;2079046;28;44337;-75
2022/02/03 06:08:32;;;;;;;;;;;;;;;6.94;100.00;101456.69;2071053;28;45226;-75
2022/02/03 06:09:57;;;;;;;120.82;35.22;;;;;;;6.93;100.00;101460.22;2071248;28;44092;-75
2022/02/03 06:16:30;;;;;;;122.20;36.35;;;;;;;6.94;99.90;101451.34;2065700;28;44057;-75
2022/02/03 06:23:28;;;;;;;114.88;37.47;;;;;;;6.93;99.67;101454.88;2070955;28;44497;-75
2022/02/03 06:28:11;;;;;;;121.63;36.13;;;;;;;6.91;99.80;101459.34;2070741;28;44071;-74
2022/02/03 06:29:16;;;;;;;106.88;35.35;;;;;;;6.92;99.96;101456.69;2070283;28;46216;-75
2022/02/03 06:30:21;;;;;;;106.10;35.92;;;;;;;6.93;100.00;101452.22;2070723;28;44930;-75
2022/02/03 06:31:24;;;;;;;117.25;37.75;;;;;;;6.94;99.95;101454.91;2070129;28;45056;-75
2022/02/03 06:32:26;;;;;;;116.05;37.10;;;;;;;6.95;99.92;101453.16;2070562;28;42180;-75
2022/02/03 06:33:28;;;;;;;111.80;38.40;;;;;;;6.94;100.00;101451.34;2070915;28;41887;-75
2022/02/03 06:34:30;;;;;;;106.57;36.85;;;;;;;6.94;100.00;101454.91;2071157;28;44506;-75
2022/02/03 06:35:31;;;;;;;115.32;37.55;;;;;;;6.94;99.86;101446.91;2070821;28;44173;-75
2022/02/03 06:36:35;;;;;;;120.15;39.28;;;;;;;6.96;99.79;101454.91;2071151;28;44934;-75
2022/02/03 06:37:37;;;;;;;114.25;38.30;;;;;;;6.94;99.67;101454.03;2070846;28;44441;-75
2022/02/03 06:38:39;;;;;;;103.88;36.08;;;;;;;6.95;99.93;101464.66;2070921;28;45685;-75
2022/02/03 06:39:40;;;;;;;109.60;39.40;;;;;;;6.97;99.93;101454.03;2069881;28;45132;-75
2022/02/03 06:40:42;;;;;;;118.10;40.65;;;;;;;6.96;99.88;101463.75;2072254;28;44721;-75
2022/02/03 06:41:45;;;;;;;104.75;37.85;;;;;;;6.96;99.93;101455.78;2072065;28;43268;-74
2022/02/03 06:42:48;;;;;;;114.68;38.33;;;;;;;6.98;99.92;101461.09;2072287;28;46099;-74
2022/02/03 06:43:50;;;;;;;109.32;39.85;;;;;;;6.98;99.81;101461.09;2072739;28;45322;-74
2022/02/03 06:45:00;;;;;;;120.18;41.40;;;;;;;6.98;99.61;101461.09;2072572;28;46480;-75
2022/02/03 06:46:08;;;;;;;109.50;39.28;;;;;;;6.98;99.81;101466.44;2072298;28;44609;-75
2022/02/03 06:47:25;;;;;;;109.07;38.38;;;;;;;6.99;100.00;101473.53;2072086;28;46182;-75
2022/02/03 06:48:29;;;;;;;112.93;40.22;;;;;;;6.98;99.73;101466.44;2071700;28;44099;-74
2022/02/03 06:51:03;;;;;;;107.85;38.95;;;;;;;7.01;99.59;101463.78;2061595;28;45153;-74
2022/02/03 06:52:12;;;;;;;104.30;40.45;;;;;;;7.00;99.72;101467.31;2067224;28;44611;-75
2022/02/03 06:53:19;;;;;;;105.97;40.55;;;;;;;6.98;99.73;101467.34;2065010;28;45440;-75
2022/02/03 06:54:31;;;;;;;110.00;41.58;;;;;;;7.00;99.81;101472.63;2071487;28;44283;-75
2022/02/03 06:55:44;;;;;;;114.18;40.40;;;;;;;7.00;99.92;101465.56;2072438;28;45384;-74
2022/02/03 06:56:54;;;;;;;107.03;38.28;;;;;;;7.00;99.70;101465.56;2071272;28;44955;-74
2022/02/03 06:58:01;;;;;;;;;;;;;;;7.02;99.70;101468.22;2072023;28;44876;-74
2022/02/03 06:59:07;;;;;;;108.88;39.22;;;;;;;7.02;99.70;101470.91;2071920;28;46788;-75
2022/02/03 07:00:19;;;;;;;105.75;39.90;;;;;;;7.02;99.74;101462.91;2071946;28;46006;-73
2022/02/03 07:01:36;;;;;;;112.75;42.38;;;;;;;7.01;99.62;101463.78;2071866;28;43819;-75
2022/02/03 07:02:42;;;;;;;99.97;36.97;;;;;;;7.03;99.52;101462.00;2063358;28;43854;-75
2022/02/03 07:04:02;;;;;;;115.03;43.33;;;;;;;7.02;99.65;101457.59;2067294;28;38745;-75
2022/02/03 07:05:04;;;;;;;115.90;43.40;;;;;;;7.02;99.68;101466.44;2071533;28;43213;-75
2022/02/03 07:06:06;;;;;;;107.97;42.10;;;;;;;7.03;99.62;101467.31;2057716;28;40698;-75
2022/02/03 07:07:08;;;;;;;112.55;43.00;;;;;;;7.03;99.48;101462.91;2063653;28;42344;-74
2022/02/03 07:08:16;;;;;;;122.55;45.08;;;;;;;7.03;99.58;101460.25;2072064;28;45921;-75
2022/02/03 07:09:18;;;;;;;122.47;43.47;;;;;;;7.03;99.78;101456.69;2072170;28;43362;-75
2022/02/03 07:10:20;;;;;;;115.97;44.17;;;;;;;7.04;99.73;101461.13;2072255;28;45250;-75
2022/02/03 07:11:24;;;;;;;121.45;44.67;;;;;;;7.03;99.57;101465.56;2071954;28;41806;-74
2022/02/03 07:12:26;;;;;;;115.95;44.88;;;;;;;7.04;99.55;101455.81;2071996;28;42388;-74
2022/02/03 07:13:33;;;;;;;112.63;43.45;;;;;;;7.05;99.51;101450.47;2071804;28;43929;-74
2022/02/03 07:14:35;;;;;;;114.13;43.65;;;;;;;7.05;99.52;101460.22;2071994;28;46061;-74
2022/02/03 07:15:37;;;;;;;119.13;45.13;;;;;;;7.05;99.61;101444.25;2071866;28;45583;-74
2022/02/03 07:16:48;;;;;;;115.07;43.30;;;;;;;7.06;99.46;101459.34;2072230;28;44904;-74
2022/02/03 07:17:49;;;;;;;;;;;;;;;7.05;99.60;101454.91;2072467;28;43363;-75
2022/02/03 07:18:51;;;;;;;110.93;42.10;;;;;;;7.05;99.57;101460.22;2072232;28;45571;-75
2022/02/03 07:20:00;;;;;;;112.70;43.30;;;;;;;7.05;99.37;101450.47;2072022;28;45565;-75
2022/02/03 07:21:01;;;;;;;107.20;42.65;;;;;;;7.02;99.43;101444.28;2072132;28;43989;-75
2022/02/03 07:22:04;;;;;;;104.05;41.58;;;;;;;7.04;99.39;101451.34;2071214;28;44015;-74
2022/02/03 07:23:09;;;;;;;116.00;43.95;;;;;;;7.12;99.47;101447.81;2069519;28;44978;-71
2022/02/03 07:24:11;;;;;;;106.82;42.38;;;;;;;7.21;99.85;101453.13;2071880;28;44177;-70
2022/02/03 07:25:13;;;;;;;113.32;43.42;;;;;;;7.22;99.62;101460.22;2071561;28;44300;-73
2022/02/03 07:26:14;;;;;;;108.40;43.67;;;;;;;7.20;99.86;101464.69;2072225;28;20035;-73
2022/02/03 07:27:16;;;;;;;100.32;42.60;;;;;;;7.18;99.45;101464.69;2071958;28;44762;-73
2022/02/03 07:28:18;;;;;;;99.85;43.60;;;;;;;7.16;99.10;101466.47;2073000;28;20046;-73
2022/02/03 07:29:20;;;;;;;105.07;42.78;;;;;;;7.14;99.00;101468.25;2071255;28;45602;-73
2022/02/03 07:30:22;;;;;;;99.65;43.55;;;;;;;7.17;99.44;101462.00;2071033;28;30913;-73
2022/02/03 07:31:23;;;;;;;100.88;43.47;;;;;;;7.14;98.95;101462.91;2071891;28;42169;-73
2022/02/03 07:32:27;;;;;;;97.50;42.75;;;;;;;7.13;98.98;101463.78;2068859;28;20073;-73
2022/02/03 07:33:31;;;;;;;101.18;41.55;;;;;;;7.12;98.82;101466.44;2071724;28;43487;-73
2022/02/03 07:34:33;;;;;;;98.75;41.88;;;;;;;7.12;98.98;101462.00;2072019;28;44084;-72
2022/02/03 07:35:35;;;;;;;92.78;39.42;;;;;;;7.12;99.02;101459.34;2071924;28;46156;-73
2022/02/03 07:36:42;;;;;;;98.28;42.33;;;;;;;7.12;99.00;101464.66;2071349;28;42034;-71
2022/02/03 07:37:47;;;;;;;93.70;40.72;;;;;;;7.12;99.12;101459.34;2071128;28;44655;-73
2022/02/03 07:38:52;;;;;;;96.00;41.30;;;;;;;7.13;99.03;101458.47;2072248;28;42594;-73
2022/02/03 07:39:55;;;;;;;95.65;42.30;;;;;;;7.13;98.98;101458.47;2071217;28;45238;-73
2022/02/03 07:41:01;;;;;;;93.20;41.17;;;;;;;7.13;98.92;101455.78;2071467;28;45104;-73
2022/02/03 07:42:04;;;;;;;96.20;42.42;;;;;;;7.13;98.86;101461.13;2071066;28;43159;-73
2022/02/03 07:43:09;;;;;;;97.35;44.05;;;;;;;7.13;98.92;101454.91;2071413;28;45299;-73
2022/02/03 07:44:14;;;;;;;95.80;42.13;;;;;;;7.14;98.90;101457.59;2072659;28;20042;-73
2022/02/03 07:45:18;;;;;;;99.32;44.63;;;;;;;7.13;98.75;101457.59;2071094;28;45695;-73
2022/02/03 07:46:20;;;;;;;99.80;44.30;;;;;;;7.14;98.80;101449.59;2070994;28;46062;-73
2022/02/03 07:47:23;;;;;;;98.07;42.72;;;;;;;7.14;99.02;101448.69;2071289;28;32198;-73
2022/02/03 07:48:25;;;;;;;98.60;42.95;;;;;;;7.13;98.79;101447.81;2063219;28;44492;-73
2022/02/03 07:49:29;;;;;;;105.45;43.63;;;;;;;7.14;98.76;101446.94;2071420;28;46169;-73
2022/02/03 07:50:31;;;;;;;104.72;44.55;;;;;;;7.14;98.82;101448.69;2071703;28;44894;-73
2022/02/03 07:51:35;;;;;;;102.22;41.35;;;;;;;7.15;98.92;101446.03;2071877;28;20947;-73
2022/02/03 07:52:37;;;;;;;100.82;43.55;;;;;;;7.14;99.14;101446.94;2064825;28;44430;-73
2022/02/03 07:53:43;;;;;;;112.78;45.20;;;;;;;7.16;98.67;101444.25;2071586;28;43748;-73
2022/02/03 07:54:45;;;;;;;100.10;44.88;;;;;;;7.16;98.72;101444.25;2065982;28;46633;-74
2022/02/03 07:55:49;;;;;;;108.53;46.75;;;;;;;7.15;99.03;101438.03;2071904;28;36642;-72
2022/02/03 07:56:50;;;;;;;104.20;43.22;;;;;;;7.14;98.35;101436.28;2071531;28;45474;-73
2022/02/03 07:57:54;;;;;;;107.05;46.05;;;;;;;7.17;98.36;101432.72;2072045;28;44475;-73
2022/02/03 07:58:56;;;;;;;109.50;45.88;;;;;;;7.15;98.62;101438.03;2070800;28;43884;-73
2022/02/03 07:59:58;;;;;;;102.43;42.50;;;;;;;7.17;99.10;101436.25;2070589;28;45316;-75
2022/02/03 08:01:01;;;;;;;110.72;47.25;;;;;;;7.16;98.73;101429.19;2062670;28;44156;-73
2022/02/03 08:02:04;;;;;;;100.45;42.60;;;;;;;7.17;98.52;101428.25;2063329;28;45882;-73
2022/02/03 08:03:11;;;;;;;107.70;46.45;;;;;;;7.16;98.55;101429.19;2072239;28;45624;-72
2022/02/03 08:04:16;;;;;;;114.35;46.72;;;;;;;7.16;98.48;101423.84;2073569;28;45461;-74
2022/02/03 08:05:22;;;;;;;110.22;45.95;;;;;;;7.16;98.41;101421.19;2078880;28;46187;-72
2022/02/03 08:06:32;;;;;;;102.30;45.38;;;;;;;7.16;98.38;101426.50;2071565;28;44423;-74
2022/02/03 08:07:34;;;;;;;112.43;46.90;;;;;;;7.17;98.89;101422.06;2070076;28;45849;-73
2022/02/03 08:08:44;;;;;;;102.32;45.90;;;;;;;7.18;98.45;101415.88;2070991;28;45917;-73
2022/02/03 08:09:57;;;;;;;108.47;47.75;;;;;;;7.17;98.68;101416.75;2071501;28;43883;-73
2022/02/03 08:11:04;;;;;;;102.80;45.00;;;;;;;7.17;98.74;101419.41;2071134;28;45093;-73
2022/02/03 08:12:10;;;;;;;105.32;44.97;;;;;;;7.18;98.46;101415.88;2071730;28;44541;-73
2022/02/03 08:13:18;;;;;;;109.75;45.60;;;;;;;7.19;98.21;101417.63;2071369;28;44027;-73
2022/02/03 08:15:59;;;;;;;105.97;45.67;;;;;;;7.19;98.40;101421.16;2066607;28;42572;-73
2022/02/03 08:17:06;;;;;;;106.57;47.10;;;;;;;7.18;98.48;101416.75;2071645;28;26804;-73
2022/02/03 08:18:13;;;;;;;118.25;48.00;;;;;;;7.18;98.42;101416.75;2070868;28;42636;-72
2022/02/03 08:19:27;;;;;;;106.03;46.83;;;;;;;7.19;98.27;101422.94;2071013;28;45049;-73
2022/02/03 08:20:29;;;;;;;118.25;49.15;;;;;;;7.17;98.59;101428.25;2071427;28;46490;-73
2022/02/03 08:21:33;;;;;;;120.25;49.90;;;;;;;7.19;98.61;101421.16;2071414;28;43230;-73
2022/02/03 08:22:44;;;;;;;116.70;49.50;;;;;;;7.18;98.56;101427.38;2070136;28;44101;-73
2022/02/03 08:24:54;;;;;;;113.28;48.65;;;;;;;7.18;98.47;101422.06;2063678;28;45304;-74
2022/02/03 08:26:05;;;;;;;115.13;49.22;;;;;;;7.20;98.82;101425.59;2070370;28;46464;-73
2022/02/03 08:27:34;;;;;;;124.60;51.92;;;;;;;7.20;98.23;101414.06;2071499;28;44657;-73
2022/02/03 08:31:07;;;;;;;115.70;48.38;;;;;;;7.20;98.71;101411.41;2071632;28;44087;-80
2022/02/03 08:32:16;;;;;;;114.68;49.13;;;;;;;7.20;98.28;101414.06;2071483;28;20170;-73
2022/02/03 08:33:21;;;;;;;128.90;52.15;;;;;;;7.19;98.48;101407.84;2064125;28;43336;-72
2022/02/03 08:34:34;;;;;;;122.68;52.05;;;;;;;7.21;98.62;101407.84;2070505;28;44592;-72
2022/02/03 08:35:44;;;;;;;117.35;51.13;;;;;;;7.19;98.36;101407.84;2071604;28;46076;-72
2022/02/03 08:36:46;;;;;;;115.70;48.72;;;;;;;7.20;98.42;101403.44;2071815;28;43651;-72
2022/02/03 08:38:02;;;;;;;120.13;50.97;;;;;;;7.21;98.18;101407.84;2070885;28;45577;-72
2022/02/03 08:39:07;;;;;;;114.25;48.85;;;;;;;7.21;98.14;101408.75;2071682;28;45546;-72
2022/02/03 08:40:21;;;;;;;114.97;49.30;;;;;;;7.19;97.96;101407.84;2070492;28;42888;-72
2022/02/03 08:41:25;;;;;;;108.53;47.08;;;;;;;7.17;97.81;101404.28;2070894;28;46598;-72
2022/02/03 08:42:26;;;;;;;104.07;47.60;;;;;;;7.18;98.03;101406.09;2071167;28;42341;-72
2022/02/03 08:43:35;;;;;;;109.65;46.97;;;;;;;7.18;97.81;101406.09;2071523;28;43165;-72
2022/02/03 08:44:37;;;;;;;94.63;44.75;;;;;;;7.17;97.79;101403.41;2070251;28;46276;-72
2022/02/03 08:45:39;;;;;;;94.10;43.22;;;;;;;7.19;97.57;101402.50;2071625;28;45259;-72
2022/02/03 08:46:41;;;;;;;85.13;42.90;;;;;;;7.20;97.28;101411.41;2070801;28;44781;-72
2022/02/03 08:47:43;;;;;;;94.78;43.05;;;;;;;7.20;97.30;101403.44;2071766;28;43179;-72
2022/02/03 08:48:45;;;;;;;91.72;43.25;;;;;;;7.20;97.37;101409.63;2070404;28;45646;-72
2022/02/03 08:49:49;;;;;;;81.82;41.33;;;;;;;7.19;97.30;101405.19;2070269;28;46015;-73
2022/02/03 08:50:51;;;;;;;82.70;40.30;;;;;;;7.19;96.74;101397.19;2070068;28;44146;-72
2022/02/03 08:51:55;;;;;;;85.55;40.55;;;;;;;7.20;96.62;101401.63;2062162;28;40933;-72
2022/02/03 08:53:06;;;;;;;83.50;40.72;;;;;;;7.21;96.81;101407.84;2062767;28;42869;-72
2022/02/03 08:54:11;;;;;;;76.00;38.75;;;;;;;7.22;96.82;101410.50;2071148;28;44270;-72
2022/02/03 08:55:24;;;;;;;80.93;39.67;;;;;;;7.22;96.65;101399.84;2071161;28;45990;-72
2022/02/03 08:56:45;;;;;;;86.82;41.58;;;;;;;7.21;96.95;101403.44;2071218;28;40408;-73
2022/02/03 09:28:58;;;;;;;70.72;33.28;;;;;;;7.04;97.30;101378.59;2054790;28;46339;-72
2022/02/03 09:36:42;;;;;;;53.70;29.00;;;;;;;7.06;96.37;101371.47;2062563;28;43651;-72
2022/02/03 09:54:59;;;;;;;36.25;20.52;;;;;;;7.21;93.96;101376.81;2062599;28;45479;-73
2022/02/03 09:58:24;;;;;;;29.42;18.88;;;;;;;7.22;93.14;101381.22;2062183;28;45442;-72
2022/02/03 09:59:36;;;;;;;34.85;19.33;;;;;;;7.24;93.17;101382.09;2062090;28;43482;-72
2022/02/03 10:01:03;;;;;;;27.17;17.58;;;;;;;7.25;92.85;101385.66;2063852;28;44436;-72
2022/02/03 10:02:14;;;;;;;25.08;17.05;;;;;;;7.25;92.69;101381.22;2066943;28;45085;-72
2022/02/03 10:03:19;;;;;;;29.77;17.17;;;;;;;7.26;92.88;101382.97;2062683;28;42168;-72
2022/02/03 10:05:59;;;;;;;28.10;15.55;;;;;;;7.29;92.20;101387.44;2079600;28;20046;-72
2022/02/03 10:07:14;;;;;;;23.70;15.18;;;;;;;7.31;92.21;101384.75;2079213;28;46506;-72
2022/02/03 10:08:21;;;;;;;24.88;14.32;;;;;;;7.37;92.51;101380.28;2069498;28;46238;-72
2022/02/03 10:09:39;;;;;;;24.67;15.23;;;;;;;7.35;92.53;101379.41;2064462;28;44442;-72
2022/02/03 10:10:41;;;;;;;22.42;14.70;;;;;;;7.39;91.97;101388.28;2073256;28;36887;-72
2022/02/03 10:11:43;;;;;;;24.67;15.50;;;;;;;7.39;91.87;101377.63;2078799;28;46239;-72
2022/02/03 10:12:49;;;;;;;22.95;15.15;;;;;;;7.36;91.71;101380.31;2079222;28;44172;-72
2022/02/03 10:14:01;;;;;;;24.17;14.75;;;;;;;7.40;91.60;101384.72;2069674;28;43794;-72
2022/02/03 10:15:07;;;;;;;23.40;14.90;;;;;;;7.34;92.33;101380.31;2072444;28;43034;-72
2022/02/03 10:16:09;;;;;;;23.65;14.70;;;;;;;7.35;91.73;101378.53;2080495;28;43189;-72
2022/02/03 10:17:13;;;;;;;24.23;15.40;;;;;;;7.38;91.57;101381.19;2080408;28;44475;-72
2022/02/03 10:18:29;;;;;;;24.48;14.73;;;;;;;7.37;91.51;101387.41;2080455;28;42902;-71
2022/02/03 10:19:37;;;;;;;23.83;15.32;;;;;;;7.30;91.27;101383.84;2080309;28;46546;-72